Time;durP1;ratioP1;P1;durP2;ratioP2;P2;SDS_P1;SDS_P2;PMS_P1;PMS_P2;Temp;Humidity;BMP_temperature;BMP_pressure;BME280_temperature;BME280_humidity;BME280_pressure;Samples;Min_cycle;Max_cycle;Signal;HPM_P1;HPM_P2
2022/01/26 00:07:35;;;;;;;9.73;6.10;;;;;;;;;;5045766;28;20098;-70
2022/01/26 00:10:00;;;;;;;9.77;5.55;;;;;;;;;;5048043;28;20029;-70
2022/01/26 00:12:25;;;;;;;10.15;5.10;;;;;;;;;;5047017;28;20129;-70
2022/01/26 00:14:51;;;;;;;9.15;5.55;;;;;;;;;;5028406;28;20084;-69
2022/01/26 00:17:16;;;;;;;9.73;5.68;;;;;;;;;;5046787;28;20490;-71
2022/01/26 00:19:52;;;;;;;10.65;5.45;;;;;;;;;;5029586;28;20677;-70
2022/01/26 00:22:38;;;;;;;12.10;6.30;;;;;;;;;;5017847;28;20043;-71
2022/01/26 00:27:48;;;;;;;10.63;5.80;;;;;;;;;;5046247;28;20033;-70
2022/01/26 00:34:17;;;;;;;13.18;6.10;;;;;;;;;;5017861;28;20056;-70
2022/01/26 00:38:48;;;;;;;8.88;4.85;;;;;;;;;;5046299;28;20482;-70
2022/01/26 00:41:18;;;;;;;6.97;4.90;;;;;;;;;;5045969;28;20073;-70
2022/01/26 00:43:51;;;;;;;10.30;5.22;;;;;;;;;;5013336;28;20059;-70
2022/01/26 00:46:17;;;;;;;12.65;5.72;;;;;;;;;;5031568;28;20028;-70
2022/01/26 00:48:43;;;;;;;8.50;5.40;;;;;;;;;;5046446;28;20033;-70
2022/01/26 00:51:08;;;;;;;9.10;5.53;;;;;;;;;;5028592;28;20402;-70
2022/01/26 00:53:43;;;;;;;10.13;5.20;;;;;;;;;;5046330;28;20020;-70
2022/01/26 00:56:08;;;;;;;10.45;5.32;;;;;;;;;;5030758;28;20025;-70
2022/01/26 00:58:34;;;;;;;10.27;5.82;;;;;;;;;;5029945;28;20691;-70
2022/01/26 01:01:01;;;;;;;6.55;4.60;;;;;;;;;;5027907;28;20032;-70
2022/01/26 01:03:27;;;;;;;9.13;4.82;;;;;;;;;;5028419;28;20025;-70
2022/01/26 01:05:59;;;;;;;8.23;4.38;;;;;;;;;;5028900;28;20491;-70
2022/01/26 01:08:25;;;;;;;6.40;4.50;;;;;;;;;;5047820;28;20115;-71
2022/01/26 01:10:52;;;;;;;8.25;4.45;;;;;;;;;;5046663;28;20403;-71
2022/01/26 01:13:21;;;;;;;7.68;4.65;;;;;;;;;;5044949;28;20097;-70
2022/01/26 01:15:47;;;;;;;9.50;4.95;;;;;;;;;;5012996;28;20330;-70
2022/01/26 01:23:47;;;;;;;8.70;4.88;;;;;;;;;;5031225;28;20386;-70
2022/01/26 01:29:08;;;;;;;8.13;4.28;;;;;;;;;;5046324;28;20149;-70
2022/01/26 01:31:52;;;;;;;7.85;4.05;;;;;;;;;;5033281;28;20040;-70
2022/01/26 01:34:19;;;;;;;5.07;3.57;;;;;;;;;;5020260;28;20049;-70
2022/01/26 01:36:48;;;;;;;5.10;3.45;;;;;;;;;;5016401;28;20274;-71
2022/01/26 01:39:14;;;;;;;4.85;3.42;;;;;;;;;;5049671;28;20029;-70
2022/01/26 01:41:40;;;;;;;6.43;4.10;;;;;;;;;;5049461;28;20096;-70
2022/01/26 01:44:06;;;;;;;5.07;3.50;;;;;;;;;;5049159;28;20387;-70
2022/01/26 01:46:32;;;;;;;4.45;3.15;;;;;;;;;;5032750;28;20024;-70
2022/01/26 01:48:57;;;;;;;4.43;3.03;;;;;;;;;;5050176;28;20037;-70
2022/01/26 01:51:29;;;;;;;6.78;4.00;;;;;;;;;;5050495;28;20470;-70
2022/01/26 01:53:55;;;;;;;5.22;3.65;;;;;;;;;;5032694;28;20036;-70
2022/01/26 01:56:24;;;;;;;6.75;3.83;;;;;;;;;;5050207;28;20060;-71
2022/01/26 01:58:49;;;;;;;10.75;4.30;;;;;;;;;;5032599;28;20051;-70
2022/01/26 02:01:14;;;;;;;6.05;3.75;;;;;;;;;;5032027;28;20041;-70
2022/01/26 02:03:40;;;;;;;9.02;3.60;;;;;;;;;;5032347;28;20043;-71
2022/01/26 02:06:05;;;;;;;7.97;4.53;;;;;;;;;;5049020;28;20048;-70
2022/01/26 02:08:30;;;;;;;5.63;4.00;;;;;;;;;;5032126;28;20322;-70
2022/01/26 02:10:56;;;;;;;6.60;3.95;;;;;;;;;;5050486;28;20037;-70
2022/01/26 02:13:29;;;;;;;8.48;5.30;;;;;;;;;;5032312;28;20032;-70
2022/01/26 02:18:55;;;;;;;11.55;6.82;;;;;;;;;;5049964;28;20040;-70
2022/01/26 02:56:15;;;;;;;10.98;5.05;;;;;;;;;;5048789;28;20064;-71
2022/01/26 03:01:38;;;;;;;9.40;4.90;;;;;;;;;;5048946;28;20038;-71
2022/01/26 03:04:30;;;;;;;6.97;4.47;;;;;;;;;;5049970;28;20147;-71
2022/01/26 03:09:22;;;;;;;7.95;4.65;;;;;;;;;;5049312;28;20033;-71
2022/01/26 03:11:48;;;;;;;8.02;4.20;;;;;;;;;;5049301;28;20453;-71
2022/01/26 03:15:08;;;;;;;5.97;3.80;;;;;;;;;;5029696;28;20289;-71
2022/01/26 03:17:08;;;;;;;6.15;3.85;;;;;;;;;;5021419;28;20065;-71
2022/01/26 03:20:10;;;;;;;8.00;4.40;;;;;;;;;;5033216;28;20040;-71
2022/01/26 03:35:53;;;;;;;6.07;3.60;;;;;;;;;;5048928;28;20045;-71
2022/01/26 03:38:26;;;;;;;4.95;2.90;;;;;;;;;;5031240;28;20121;-71
2022/01/26 03:41:09;;;;;;;6.72;4.28;;;;;;;;;;5031188;28;20017;-71
2022/01/26 03:43:35;;;;;;;6.28;3.83;;;;;;;;;;5029957;28;20111;-71
2022/01/26 03:46:00;;;;;;;8.55;3.80;;;;;;;;;;5029992;28;20072;-71
2022/01/26 03:48:25;;;;;;;6.30;3.45;;;;;;;;;;5047149;28;20021;-71
2022/01/26 03:50:51;;;;;;;6.72;4.13;;;;;;;;;;5041180;28;20108;-71
2022/01/26 03:53:16;;;;;;;6.47;3.88;;;;;;;;;;5046981;28;20061;-71
2022/01/26 03:55:41;;;;;;;6.60;3.47;;;;;;;;;;5047962;28;20057;-71
2022/01/26 03:58:07;;;;;;;6.57;3.85;;;;;;;;;;5012516;28;20503;-71
2022/01/26 04:00:33;;;;;;;6.93;4.22;;;;;;;;;;5013346;28;20543;-71
2022/01/26 04:02:58;;;;;;;6.35;4.10;;;;;;;;;;5047112;28;20501;-71
2022/01/26 04:05:25;;;;;;;5.90;4.00;;;;;;;;;;5030494;28;20487;-71
2022/01/26 04:07:55;;;;;;;6.88;3.85;;;;;;;;;;5048362;28;20489;-71
2022/01/26 04:10:41;;;;;;;9.15;4.63;;;;;;;;;;5030427;28;20104;-71
2022/01/26 04:13:06;;;;;;;7.32;4.53;;;;;;;;;;5048001;28;20025;-71
2022/01/26 04:15:35;;;;;;;7.03;4.65;;;;;;;;;;5045578;28;20094;-71
2022/01/26 04:18:02;;;;;;;6.82;4.60;;;;;;;;;;5047767;28;20480;-71
2022/01/26 04:20:31;;;;;;;7.20;4.40;;;;;;;;;;5031489;28;20035;-71
2022/01/26 04:23:10;;;;;;;7.60;4.20;;;;;;;;;;5031105;28;20032;-71
2022/01/26 04:25:36;;;;;;;6.10;3.80;;;;;;;;;;5031573;28;20057;-71
2022/01/26 04:28:06;;;;;;;9.13;4.22;;;;;;;;;;5047407;28;20025;-71
2022/01/26 04:30:32;;;;;;;5.13;3.72;;;;;;;;;;5028861;28;20108;-71
2022/01/26 04:33:03;;;;;;;5.47;3.50;;;;;;;;;;5047858;28;20036;-71
2022/01/26 04:35:28;;;;;;;5.40;3.88;;;;;;;;;;5047480;28;20380;-71
2022/01/26 04:38:13;;;;;;;7.32;3.92;;;;;;;;;;5029799;28;20033;-71
2022/01/26 04:40:46;;;;;;;4.82;3.17;;;;;;;;;;5047181;28;20044;-71
2022/01/26 04:43:18;;;;;;;7.80;3.08;;;;;;;;;;5030846;28;20033;-71
2022/01/26 04:45:43;;;;;;;3.67;2.88;;;;;;;;;;5029635;28;20032;-71
2022/01/26 04:48:09;;;;;;;7.22;3.30;;;;;;;;;;5047586;28;20446;-71
2022/01/26 04:50:34;;;;;;;7.10;3.97;;;;;;;;;;5028401;28;20029;-71
2022/01/26 04:52:59;;;;;;;5.47;3.63;;;;;;;;;;5029345;28;20062;-71
2022/01/26 04:55:25;;;;;;;8.15;3.88;;;;;;;;;;5048246;28;20037;-71
2022/01/26 04:57:50;;;;;;;5.60;3.38;;;;;;;;;;5029389;28;20029;-71
2022/01/26 05:00:16;;;;;;;5.95;3.58;;;;;;;;;;5046271;28;20036;-71
2022/01/26 05:02:41;;;;;;;4.85;3.53;;;;;;;;;;5014581;28;20025;-71
2022/01/26 05:05:07;;;;;;;5.13;3.65;;;;;;;;;;5047664;28;20029;-71
2022/01/26 05:07:32;;;;;;;7.25;3.65;;;;;;;;;;5049604;28;20051;-71
2022/01/26 05:09:58;;;;;;;5.35;3.55;;;;;;;;;;5051794;28;20113;-71
2022/01/26 05:12:23;;;;;;;6.88;3.60;;;;;;;;;;5051299;28;20040;-71
2022/01/26 05:14:50;;;;;;;5.07;3.60;;;;;;;;;;5052105;28;20108;-71
2022/01/26 05:17:19;;;;;;;5.35;3.33;;;;;;;;;;5034034;28;20104;-71
2022/01/26 05:19:44;;;;;;;5.82;3.42;;;;;;;;;;5032268;28;20107;-71
2022/01/26 05:22:09;;;;;;;8.18;3.83;;;;;;;;;;5050717;28;20892;-71
2022/01/26 05:24:35;;;;;;;6.22;3.70;;;;;;;;;;5051725;28;20043;-71
2022/01/26 05:27:00;;;;;;;4.63;3.70;;;;;;;;;;5035165;28;20024;-71
2022/01/26 05:29:25;;;;;;;8.07;4.55;;;;;;;;;;5051754;28;20060;-71
2022/01/26 05:31:51;;;;;;;10.68;4.80;;;;;;;;;;5050194;28;20064;-71
2022/01/26 05:34:16;;;;;;;10.13;4.90;;;;;;;;;;5017022;28;20063;-71
2022/01/26 05:36:41;;;;;;;8.90;4.57;;;;;;;;;;5032797;28;20068;-71
2022/01/26 05:39:06;;;;;;;7.30;4.75;;;;;;;;;;5031648;28;20059;-71
2022/01/26 05:41:32;;;;;;;7.45;4.70;;;;;;;;;;5032503;28;20088;-71
2022/01/26 05:43:57;;;;;;;6.22;4.03;;;;;;;;;;5049917;28;20470;-71
2022/01/26 05:46:47;;;;;;;7.28;4.65;;;;;;;;;;5032146;28;20327;-71
2022/01/26 05:49:09;;;;;;;7.97;4.47;;;;;;;;;;5050439;28;20074;-71
2022/01/26 05:51:35;;;;;;;7.10;4.43;;;;;;;;;;5033473;28;20075;-71
2022/01/26 05:54:01;;;;;;;8.10;4.15;;;;;;;;;;5032435;28;20526;-71
2022/01/26 05:56:26;;;;;;;7.28;4.70;;;;;;;;;;5015837;28;20041;-71
2022/01/26 05:58:52;;;;;;;8.70;5.40;;;;;;;;;;5032762;28;20486;-71
2022/01/26 06:01:19;;;;;;;7.22;4.53;;;;;;;;;;5051084;28;20423;-71
2022/01/26 06:03:44;;;;;;;8.80;5.00;;;;;;;;;;5050861;28;20063;-71
2022/01/26 06:06:09;;;;;;;8.43;5.43;;;;;;;;;;5050080;28;20487;-71
2022/01/26 06:08:35;;;;;;;12.07;5.20;;;;;;;;;;5047951;28;20628;-71
2022/01/26 06:11:01;;;;;;;8.75;4.72;;;;;;;;;;5050945;28;20146;-71
2022/01/26 06:13:27;;;;;;;9.90;4.93;;;;;;;;;;5049258;28;20020;-71
2022/01/26 06:15:52;;;;;;;7.53;4.43;;;;;;;;;;5011136;28;20681;-71
2022/01/26 06:18:18;;;;;;;8.02;4.60;;;;;;;;;;5050897;28;20021;-71
2022/01/26 06:20:43;;;;;;;9.40;4.20;;;;;;;;;;5032313;28;20082;-71
2022/01/26 06:23:08;;;;;;;7.70;4.80;;;;;;;;;;5032038;28;20339;-71
2022/01/26 06:25:34;;;;;;;13.63;4.93;;;;;;;;;;5032451;28;20025;-71
2022/01/26 06:28:01;;;;;;;9.27;4.80;;;;;;;;;;5031906;28;20538;-71
2022/01/26 06:30:26;;;;;;;7.25;3.95;;;;;;;;;;5049374;28;20400;-71
2022/01/26 06:32:51;;;;;;;7.68;4.63;;;;;;;;;;5029466;28;20039;-70
2022/01/26 06:35:17;;;;;;;9.70;5.35;;;;;;;;;;5031048;28;20399;-70
2022/01/26 06:37:45;;;;;;;8.27;5.30;;;;;;;;;;5015316;28;20029;-70
2022/01/26 06:40:11;;;;;;;9.88;5.78;;;;;;;;;;5049491;28;20120;-70
2022/01/26 06:43:01;;;;;;;9.23;4.72;;;;;;;;;;5031465;28;20108;-70
2022/01/26 06:45:25;;;;;;;8.02;5.22;;;;;;;;;;5032702;28;20076;-70
2022/01/26 06:50:35;;;;;;;7.70;4.35;;;;;;;;;;5035090;28;20457;-70
2022/01/26 06:53:00;;;;;;;11.65;4.57;;;;;;;;;;5014797;28;20037;-70
2022/01/26 06:55:25;;;;;;;8.27;4.55;;;;;;;;;;5046961;28;20032;-70
2022/01/26 06:57:51;;;;;;;7.47;4.75;;;;;;;;;;5048343;28;20029;-70
2022/01/26 07:00:16;;;;;;;8.75;5.18;;;;;;;;;;5046693;28;20036;-69
2022/01/26 07:02:42;;;;;;;9.77;5.03;;;;;;;;;;5049068;28;20563;-70
2022/01/26 07:05:08;;;;;;;8.90;5.18;;;;;;;;;;5048200;28;20102;-70
2022/01/26 07:07:33;;;;;;;10.48;4.68;;;;;;;;;;5010897;28;20037;-70
2022/01/26 07:09:59;;;;;;;8.82;5.03;;;;;;;;;;5044453;28;20077;-71
2022/01/26 07:12:24;;;;;;;7.65;4.80;;;;;;;;;;5046530;28;20025;-70
2022/01/26 07:22:43;;;;;;;10.82;5.38;;;;;;;;;;5047167;28;20037;-70
2022/01/26 07:25:08;;;;;;;7.72;4.65;;;;;;;;;;5029231;28;20115;-70
2022/01/26 07:27:33;;;;;;;9.55;4.85;;;;;;;;;;5028316;28;20136;-70
2022/01/26 07:29:59;;;;;;;8.57;4.65;;;;;;;;;;5047953;28;20025;-70
2022/01/26 07:32:27;;;;;;;6.75;4.15;;;;;;;;;;5030070;28;20029;-70
2022/01/26 07:34:52;;;;;;;8.90;4.45;;;;;;;;;;5011794;28;20568;-70
2022/01/26 07:37:20;;;;;;;7.07;4.22;;;;;;;;;;5048846;28;20017;-70
2022/01/26 07:39:59;;;;;;;7.70;4.65;;;;;;;;;;5031081;28;20497;-70
2022/01/26 07:42:25;;;;;;;8.90;5.20;;;;;;;;;;5047500;28;20032;-70
2022/01/26 07:44:50;;;;;;;8.60;4.57;;;;;;;;;;5046948;28;20033;-70
2022/01/26 07:47:15;;;;;;;7.72;4.85;;;;;;;;;;5047641;28;20160;-70
2022/01/26 07:49:41;;;;;;;8.52;4.93;;;;;;;;;;5043238;28;20123;-70
2022/01/26 07:52:06;;;;;;;10.00;5.05;;;;;;;;;;5014256;28;20605;-71
2022/01/26 07:54:32;;;;;;;8.20;4.85;;;;;;;;;;5020429;28;20028;-70
2022/01/26 07:56:57;;;;;;;8.10;5.03;;;;;;;;;;5047241;28;20487;-70
2022/01/26 07:59:23;;;;;;;8.75;4.88;;;;;;;;;;5048117;28;20486;-70
2022/01/26 08:01:48;;;;;;;7.75;4.93;;;;;;;;;;5028715;28;20402;-70
2022/01/26 08:04:13;;;;;;;8.52;4.72;;;;;;;;;;5047803;28;20057;-71
2022/01/26 08:06:40;;;;;;;8.18;4.80;;;;;;;;;;5047663;28;20067;-70
2022/01/26 08:09:05;;;;;;;10.88;4.70;;;;;;;;;;5029779;28;20480;-70
2022/01/26 08:11:30;;;;;;;9.57;5.28;;;;;;;;;;5028540;28;20131;-70
2022/01/26 08:13:57;;;;;;;9.82;4.68;;;;;;;;;;5025292;28;20163;-70
2022/01/26 08:16:23;;;;;;;11.82;5.30;;;;;;;;;;5047047;28;20071;-71
2022/01/26 08:18:48;;;;;;;14.60;7.28;;;;;;;;;;5031487;28;20052;-70
2022/01/26 08:21:15;;;;;;;12.43;6.53;;;;;;;;;;5047720;28;20016;-70
2022/01/26 08:23:43;;;;;;;10.20;5.80;;;;;;;;;;5048065;28;20029;-70
2022/01/26 08:26:08;;;;;;;12.65;5.68;;;;;;;;;;5029999;28;20021;-70
2022/01/26 08:28:38;;;;;;;10.07;5.55;;;;;;;;;;5046863;28;20017;-70
2022/01/26 08:31:04;;;;;;;13.25;7.70;;;;;;;;;;5013287;28;20407;-71
2022/01/26 08:33:29;;;;;;;13.15;7.05;;;;;;;;;;5030378;28;20025;-70
2022/01/26 08:35:55;;;;;;;13.95;8.15;;;;;;;;;;5030139;28;20021;-70
2022/01/26 08:38:21;;;;;;;10.35;6.00;;;;;;;;;;5047398;28;20037;-70
2022/01/26 08:40:47;;;;;;;8.45;5.65;;;;;;;;;;5053120;28;20078;-70
2022/01/26 08:43:12;;;;;;;9.02;5.47;;;;;;;;;;5055099;28;20467;-70
2022/01/26 08:45:37;;;;;;;8.07;4.75;;;;;;;;;;5036804;28;20025;-70
2022/01/26 08:48:03;;;;;;;8.85;4.85;;;;;;;;;;5034664;28;20487;-70
2022/01/26 08:50:28;;;;;;;8.13;4.03;;;;;;;;;;5053810;28;20016;-71
2022/01/26 08:52:54;;;;;;;8.80;5.07;;;;;;;;;;5053775;28;20031;-70
2022/01/26 08:55:19;;;;;;;8.32;5.20;;;;;;;;;;5054005;28;20017;-72
2022/01/26 08:57:44;;;;;;;12.68;5.28;;;;;;;;;;5033785;28;20036;-72
2022/01/26 09:00:12;;;;;;;6.45;4.80;;;;;;;;;;5051710;28;20028;-72
2022/01/26 09:02:37;;;;;;;8.68;4.60;;;;;;;;;;5034065;28;20718;-72
2022/01/26 09:05:08;;;;;;;4.28;3.42;;;;;;;;;;5014758;28;20020;-72
2022/01/26 09:07:33;;;;;;;9.60;4.22;;;;;;;;;;5032112;28;20021;-71
2022/01/26 09:10:01;;;;;;;5.40;3.03;;;;;;;;;;5016590;28;20036;-71
2022/01/26 09:12:26;;;;;;;4.60;3.42;;;;;;;;;;5053526;28;20055;-71
2022/01/26 09:14:52;;;;;;;7.15;4.15;;;;;;;;;;5028235;28;20060;-72
2022/01/26 09:17:19;;;;;;;6.75;3.75;;;;;;;;;;5052662;28;20036;-72
2022/01/26 09:19:45;;;;;;;10.20;3.90;;;;;;;;;;5037849;28;20039;-71
2022/01/26 09:22:13;;;;;;;5.43;4.15;;;;;;;;;;5053550;28;20032;-72
2022/01/26 09:24:38;;;;;;;5.90;4.10;;;;;;;;;;5052381;28;20159;-72
2022/01/26 09:27:04;;;;;;;7.80;3.53;;;;;;;;;;5035455;28;20439;-72
2022/01/26 09:29:31;;;;;;;6.03;3.42;;;;;;;;;;5033245;28;20045;-72
2022/01/26 09:31:57;;;;;;;5.32;3.28;;;;;;;;;;5035303;28;20523;-72
2022/01/26 09:34:23;;;;;;;4.80;3.15;;;;;;;;;;5020032;28;20496;-72
2022/01/26 09:36:48;;;;;;;6.82;3.45;;;;;;;;;;5034673;28;20032;-72
2022/01/26 09:39:17;;;;;;;9.02;3.20;;;;;;;;;;5033702;28;20043;-72
2022/01/26 09:41:50;;;;;;;3.92;3.03;;;;;;;;;;5051979;28;20074;-71
2022/01/26 09:44:15;;;;;;;6.00;2.70;;;;;;;;;;5036605;28;20427;-72
2022/01/26 09:46:41;;;;;;;5.55;3.00;;;;;;;;;;5052519;28;20144;-72
2022/01/26 09:49:06;;;;;;;3.38;2.50;;;;;;;;;;5033942;28;20376;-71
2022/01/26 09:51:38;;;;;;;3.55;2.67;;;;;;;;;;5033695;28;20032;-72
2022/01/26 09:54:06;;;;;;;3.97;2.65;;;;;;;;;;5034306;28;20032;-72
2022/01/26 09:56:31;;;;;;;3.40;2.67;;;;;;;;;;5016856;28;20511;-72
2022/01/26 09:58:56;;;;;;;3.67;2.95;;;;;;;;;;5016878;28;20047;-72
2022/01/26 10:01:22;;;;;;;4.13;2.85;;;;;;;;;;5016777;28;20033;-72
2022/01/26 10:03:49;;;;;;;5.15;3.00;;;;;;;;;;5013898;28;20071;-72
2022/01/26 10:06:26;;;;;;;6.90;2.88;;;;;;;;;;5029835;28;20056;-72
2022/01/26 10:09:01;;;;;;;4.78;2.75;;;;;;;;;;5011950;28;20395;-71
2022/01/26 10:17:26;;;;;;;3.72;2.60;;;;;;;;;;5033811;28;20120;-72
2022/01/26 10:19:59;;;;;;;3.10;2.05;;;;;;;;;;5020037;28;20036;-72
2022/01/26 10:22:26;;;;;;;4.15;2.20;;;;;;;;;;5049881;28;20028;-71
2022/01/26 10:25:08;;;;;;;2.42;2.20;;;;;;;;;;5015878;28;20399;-71
2022/01/26 10:27:51;;;;;;;4.30;2.35;;;;;;;;;;5012704;28;20843;-71
2022/01/26 10:30:19;;;;;;;3.33;2.28;;;;;;;;;;5046023;28;20160;-71
2022/01/26 10:32:45;;;;;;;3.63;2.67;;;;;;;;;;5028795;28;20044;-71
2022/01/26 10:35:11;;;;;;;4.28;2.42;;;;;;;;;;5032149;28;20077;-71
2022/01/26 10:37:38;;;;;;;3.97;2.70;;;;;;;;;;5011902;28;20163;-71
2022/01/26 10:40:09;;;;;;;8.32;3.20;;;;;;;;;;5027010;28;21517;-71
2022/01/26 10:42:35;;;;;;;10.07;3.25;;;;;;;;;;5046526;28;20036;-71
2022/01/26 10:47:36;;;;;;;8.02;2.80;;;;;;;;;;5032524;28;20040;-71
2022/01/26 10:53:07;;;;;;;3.35;2.75;;;;;;;;;;5010151;28;20041;-71
2022/01/26 10:55:34;;;;;;;5.47;3.10;;;;;;;;;;5028692;28;20111;-71
2022/01/26 10:58:00;;;;;;;6.88;2.60;;;;;;;;;;5029344;28;20033;-72
2022/01/26 11:00:26;;;;;;;6.93;2.65;;;;;;;;;;5028572;28;20084;-72
2022/01/26 11:02:57;;;;;;;5.05;2.40;;;;;;;;;;5027421;28;20146;-72
2022/01/26 11:05:23;;;;;;;4.18;2.33;;;;;;;;;;5015226;28;20061;-71
2022/01/26 11:07:48;;;;;;;2.33;1.90;;;;;;;;;;5049087;28;20047;-71
2022/01/26 11:10:14;;;;;;;4.32;1.90;;;;;;;;;;5030285;28;20487;-71
2022/01/26 11:12:40;;;;;;;3.08;2.08;;;;;;;;;;5048831;28;20059;-71
2022/01/26 11:15:09;;;;;;;3.97;2.00;;;;;;;;;;5048184;28;20060;-71
2022/01/26 11:17:37;;;;;;;2.03;1.80;;;;;;;;;;5030546;28;20025;-71
2022/01/26 11:20:21;;;;;;;2.80;2.28;;;;;;;;;;5031149;28;20028;-71
2022/01/26 11:22:51;;;;;;;2.45;1.90;;;;;;;;;;5031685;28;20036;-71
2022/01/26 11:25:16;;;;;;;3.95;2.10;;;;;;;;;;5030481;28;20116;-71
2022/01/26 11:27:42;;;;;;;4.57;2.35;;;;;;;;;;5047835;28;20450;-71
2022/01/26 11:30:15;;;;;;;1.90;1.80;;;;;;;;;;5030307;28;20033;-71
2022/01/26 11:32:48;;;;;;;2.33;1.63;;;;;;;;;;5048502;28;20124;-71
2022/01/26 11:35:14;;;;;;;6.50;2.08;;;;;;;;;;5030508;28;20028;-71
2022/01/26 11:37:44;;;;;;;2.20;2.00;;;;;;;;;;5030410;28;20082;-71
2022/01/26 11:45:35;;;;;;;4.80;2.20;;;;;;;;;;5047310;28;19958;-71
2022/01/26 11:48:03;;;;;;;2.28;1.92;;;;;;;;;;5048214;28;20056;-71
2022/01/26 11:50:29;;;;;;;2.40;1.98;;;;;;;;;;5047434;28;20116;-71
2022/01/26 11:53:06;;;;;;;2.63;2.03;;;;;;;;;;5029513;28;20028;-71
2022/01/26 11:55:35;;;;;;;2.72;2.08;;;;;;;;;;5046677;28;20023;-71
2022/01/26 11:58:15;;;;;;;2.83;2.00;;;;;;;;;;5047863;28;20032;-71
2022/01/26 12:03:22;;;;;;;8.52;2.00;;;;;;;;;;5009198;28;20427;-71
2022/01/26 12:12:31;;;;;;;2.13;1.60;;;;;;;;;;5039839;28;20249;-71
2022/01/26 12:15:04;;;;;;;1.58;1.30;;;;;;;;;;5041351;28;20542;-71
2022/01/26 12:17:34;;;;;;;2.43;1.50;;;;;;;;;;5000923;28;20021;-70
2022/01/26 12:39:14;;;;;;;2.47;1.63;;;;;;;;;;5042793;28;20035;-71
2022/01/26 12:41:47;;;;;;;4.45;2.03;;;;;;;;;;5008861;28;20037;-71
2022/01/26 12:44:15;;;;;;;3.50;2.40;;;;;;;;;;5022363;28;20532;-70
2022/01/26 12:46:41;;;;;;;5.07;2.50;;;;;;;;;;5038327;28;20636;-70
2022/01/26 12:49:10;;;;;;;2.88;2.55;;;;;;;;;;5039377;28;20028;-71
2022/01/26 12:51:54;;;;;;;3.80;2.85;;;;;;;;;;5005384;28;20055;-71
2022/01/26 12:54:20;;;;;;;2.85;2.40;;;;;;;;;;5038708;28;20118;-71
2022/01/26 12:56:45;;;;;;;3.40;2.58;;;;;;;;;;5038466;28;20036;-71
2022/01/26 12:59:13;;;;;;;2.55;2.28;;;;;;;;;;5025971;28;20514;-71
2022/01/26 13:01:40;;;;;;;7.18;2.95;;;;;;;;;;5023611;28;20495;-71
2022/01/26 13:04:08;;;;;;;4.65;3.15;;;;;;;;;;5004379;28;20032;-71
2022/01/26 13:06:36;;;;;;;4.13;3.05;;;;;;;;;;5006551;28;20117;-71
2022/01/26 13:09:14;;;;;;;7.38;3.00;;;;;;;;;;5010681;28;20064;-71
2022/01/26 13:11:39;;;;;;;6.55;3.60;;;;;;;;;;5024881;28;20550;-71
2022/01/26 13:14:16;;;;;;;4.55;3.20;;;;;;;;;;5021932;28;20036;-71
2022/01/26 13:16:55;;;;;;;4.40;3.28;;;;;;;;;;5007171;28;20124;-70
2022/01/26 13:19:46;;;;;;;7.32;3.38;;;;;;;;;;5028900;28;20032;-71
2022/01/26 13:25:11;;;;;;;5.85;3.30;;;;;;;;;;5037911;28;20437;-70
2022/01/26 13:30:19;;;;;;;4.63;3.00;;;;;;;;;;5042611;28;20376;-72
2022/01/26 13:35:44;;;;;;;4.35;3.22;;;;;;;;;;5031410;28;21849;-71
2022/01/26 13:38:49;;;;;;;14.43;3.45;;;;;;;;;;5018989;28;20056;-72
2022/01/26 13:49:56;;;;;;;3.90;2.97;;;;;;;;;;5026556;28;20041;-69
2022/01/26 14:00:14;;;;;;;4.22;3.22;;;;;;;;;;5041205;28;20040;-70
2022/01/26 14:02:40;;;;;;;3.95;2.70;;;;;;;;;;5028222;28;20090;-70
2022/01/26 14:05:05;;;;;;;7.45;2.90;;;;;;;;;;5044380;28;20028;-69
2022/01/26 14:07:31;;;;;;;2.85;2.15;;;;;;;;;;5025379;28;20047;-70
2022/01/26 14:09:56;;;;;;;2.47;2.28;;;;;;;;;;5024973;28;20040;-69
2022/01/26 14:12:27;;;;;;;3.60;2.28;;;;;;;;;;5028200;28;20025;-69
2022/01/26 14:14:55;;;;;;;2.22;2.03;;;;;;;;;;5044468;28;20547;-69
2022/01/26 14:17:37;;;;;;;2.50;2.05;;;;;;;;;;5042685;28;20132;-71
2022/01/26 14:28:07;;;;;;;4.63;1.90;;;;;;;;;;5004734;28;20052;-69
2022/01/26 14:30:53;;;;;;;4.15;2.20;;;;;;;;;;5022803;28;20596;-69
2022/01/26 14:53:02;;;;;;;4.93;3.70;;;;;;;;;;5047715;28;20064;-71
2022/01/26 14:55:00;;;;;;;2.38;2.17;;;;;;;;;;5030047;28;20063;-72
2022/01/26 15:40:19;;;;;;;10.63;4.67;;;;;;;;;;5031255;28;20047;-71
2022/01/26 15:57:18;;;;;;;5.38;2.70;;;;;;;;;;5045997;28;20040;-71
2022/01/26 16:04:33;;;;;;;14.63;5.93;;;;;;;;;;5046644;28;20063;-71
2022/01/26 16:52:23;;;;;;;2.63;1.73;;;;;;;;;;5030863;28;20415;-71
2022/01/26 18:50:14;;;;;;;8.23;4.65;;;;;;;;;;5055481;28;20078;-71
2022/01/26 18:52:40;;;;;;;10.15;4.90;;;;;;;;;;5034372;28;20044;-71
2022/01/26 18:55:07;;;;;;;9.35;4.18;;;;;;;;;;5034059;28;20664;-71
2022/01/26 18:57:32;;;;;;;8.60;4.28;;;;;;;;;;5008705;28;20037;-70
2022/01/26 18:59:57;;;;;;;6.28;4.40;;;;;;;;;;5050868;28;20409;-71
2022/01/26 19:02:25;;;;;;;9.52;4.45;;;;;;;;;;5032972;28;20495;-71
2022/01/26 19:04:50;;;;;;;7.90;4.68;;;;;;;;;;5025535;28;20116;-71
2022/01/26 19:07:16;;;;;;;8.80;5.25;;;;;;;;;;5041267;28;20179;-71
2022/01/26 19:09:47;;;;;;;9.82;5.10;;;;;;;;;;5044673;28;20066;-71
2022/01/26 19:12:15;;;;;;;15.88;7.95;;;;;;;;;;5028433;28;20035;-70
2022/01/26 19:14:45;;;;;;;36.28;13.07;;;;;;;;;;5025670;28;20086;-71
2022/01/26 19:17:16;;;;;;;20.73;9.40;;;;;;;;;;5029372;28;20025;-71
2022/01/26 19:25:13;;;;;;;21.65;10.18;;;;;;;;;;5032107;28;20553;-71
2022/01/26 19:46:09;;;;;;;31.08;15.60;;;;;;;;;;5033411;28;20024;-69
2022/01/26 19:51:18;;;;;;;38.28;17.88;;;;;;;;;;5051332;28;20571;-69
2022/01/26 19:53:43;;;;;;;45.20;19.60;;;;;;;;;;5054066;28;20040;-69
2022/01/26 19:56:09;;;;;;;34.72;17.98;;;;;;;;;;5070216;28;20102;-68
2022/01/26 19:58:34;;;;;;;39.47;18.58;;;;;;;;;;5070137;28;20028;-68
2022/01/26 20:00:59;;;;;;;47.33;20.70;;;;;;;;;;5041410;28;20044;-69
2022/01/26 20:03:26;;;;;;;38.40;19.80;;;;;;;;;;5032610;28;20025;-68
2022/01/26 20:05:53;;;;;;;43.72;19.92;;;;;;;;;;5032692;28;20032;-68
2022/01/26 20:10:54;;;;;;;46.13;19.95;;;;;;;;;;5049553;28;20033;-68
2022/01/26 20:13:26;;;;;;;49.88;21.20;;;;;;;;;;5040086;28;20032;-68
2022/01/26 20:15:52;;;;;;;53.65;22.63;;;;;;;;;;5032686;28;20025;-68
2022/01/26 20:18:17;;;;;;;53.53;22.63;;;;;;;;;;5070133;28;20028;-69
2022/01/26 20:20:42;;;;;;;47.95;21.17;;;;;;;;;;5052042;28;20027;-69
2022/01/26 20:23:10;;;;;;;46.55;20.98;;;;;;;;;;5049571;28;20414;-68
2022/01/26 20:25:36;;;;;;;44.50;21.20;;;;;;;;;;5049544;28;20048;-69
2022/01/26 20:28:06;;;;;;;45.40;21.42;;;;;;;;;;5032242;28;20439;-68
2022/01/26 20:30:34;;;;;;;48.20;22.08;;;;;;;;;;5049116;28;20075;-68
2022/01/26 20:32:59;;;;;;;49.75;23.27;;;;;;;;;;5053373;28;20024;-68
2022/01/26 20:35:24;;;;;;;51.08;23.50;;;;;;;;;;5041451;28;20063;-69
2022/01/26 20:37:50;;;;;;;46.05;21.05;;;;;;;;;;5031955;28;20032;-69
2022/01/26 20:40:15;;;;;;;42.35;20.48;;;;;;;;;;5032782;28;20090;-68
2022/01/26 20:42:40;;;;;;;40.45;18.35;;;;;;;;;;5040734;28;20025;-69
2022/01/26 20:45:06;;;;;;;40.58;18.17;;;;;;;;;;5033646;28;20021;-69
2022/01/26 20:47:33;;;;;;;36.28;16.92;;;;;;;;;;5032134;28;20028;-68
2022/01/26 20:49:58;;;;;;;38.58;18.80;;;;;;;;;;5031918;28;20454;-69
2022/01/26 20:52:24;;;;;;;34.30;17.55;;;;;;;;;;5065737;28;20078;-69
2022/01/26 20:54:49;;;;;;;36.83;16.00;;;;;;;;;;5047414;28;20059;-69
2022/01/26 20:57:14;;;;;;;30.88;14.18;;;;;;;;;;5051847;28;20114;-68
2022/01/26 20:59:40;;;;;;;48.08;20.15;;;;;;;;;;5049902;28;20344;-72
2022/01/26 21:02:05;;;;;;;99.53;33.10;;;;;;;;;;5046321;28;20041;-72
2022/01/26 21:04:30;;;;;;;75.60;28.25;;;;;;;;;;5029989;28;20024;-72
2022/01/26 21:06:56;;;;;;;43.17;19.00;;;;;;;;;;5028193;28;20021;-72
2022/01/26 21:09:21;;;;;;;31.25;15.40;;;;;;;;;;5028797;28;20021;-72
2022/01/26 21:11:46;;;;;;;31.02;15.38;;;;;;;;;;5045827;28;20040;-72
2022/01/26 21:14:12;;;;;;;29.95;15.05;;;;;;;;;;5027049;28;20024;-72
2022/01/26 21:16:38;;;;;;;37.08;17.10;;;;;;;;;;5028608;28;20446;-72
2022/01/26 21:19:03;;;;;;;68.22;24.90;;;;;;;;;;5047768;28;20032;-72
2022/01/26 21:21:29;;;;;;;67.53;25.35;;;;;;;;;;5029892;28;20116;-72
2022/01/26 21:23:57;;;;;;;54.40;22.42;;;;;;;;;;5045978;28;20032;-72
2022/01/26 21:26:23;;;;;;;50.35;20.52;;;;;;;;;;5027034;28;20040;-72
2022/01/26 21:28:48;;;;;;;39.58;19.80;;;;;;;;;;5027527;28;20033;-72
2022/01/26 21:31:15;;;;;;;40.33;19.38;;;;;;;;;;5028461;28;20061;-72
2022/01/26 21:33:42;;;;;;;45.83;20.88;;;;;;;;;;5028752;28;20043;-72
2022/01/26 21:36:10;;;;;;;41.25;18.95;;;;;;;;;;5027773;28;20043;-72
2022/01/26 21:38:40;;;;;;;40.10;19.17;;;;;;;;;;5045813;28;20115;-72
2022/01/26 21:41:06;;;;;;;40.42;19.38;;;;;;;;;;5028441;28;20480;-72
2022/01/26 21:43:32;;;;;;;38.90;17.92;;;;;;;;;;5011078;28;20020;-72
2022/01/26 21:45:57;;;;;;;40.90;18.85;;;;;;;;;;5026274;28;20089;-72
2022/01/26 21:48:22;;;;;;;39.30;18.38;;;;;;;;;;5016961;28;20135;-72
2022/01/26 21:50:48;;;;;;;45.80;19.98;;;;;;;;;;5032211;28;20594;-72
2022/01/26 21:53:13;;;;;;;44.63;20.00;;;;;;;;;;5034036;28;20013;-72
2022/01/26 21:55:38;;;;;;;43.90;19.85;;;;;;;;;;5031832;28;20426;-72
2022/01/26 21:58:04;;;;;;;42.40;20.08;;;;;;;;;;5031889;28;20021;-72
2022/01/26 22:00:29;;;;;;;37.83;19.88;;;;;;;;;;5049541;28;20035;-72
2022/01/26 22:02:55;;;;;;;40.63;19.35;;;;;;;;;;5049064;28;20016;-72